首页
METAR-TAF:

METAR-TAF

机场 :

Passo Rolle, 意大利

纬度: 46-18N, 经度: 011-47E, 海拔: 2004米

当前天气观测

该预报发布于28分钟前的06:55 UTC
风速5节,风向北转西北
温度 -3°C
湿度 100%
气压 1019 hPa
能见度10公里或以上
1500米以下无云,无积雨云

METAR: LIVR 170655Z 34005KT CAVOK M03/M03 Q1019 RMK BKN BKN060 MON LIB VIS MIN 9999

时间: 08:23 (07:23 UTC)


TAF: 丢失

超过4000个机场的气象观测和天气预报(METAR&TAF报告)。

可查询的气象台以黄色和红色小点在地图上表示。

将鼠标移到小点上方,可查看气象台名称。

然后点击查看天气观测和预报。

如需切换地图:点击带黑十字的绿色按钮放大地图;点击带横线的绿色按钮缩小地图;或者点击绿色箭头查看邻近地区的地图。


METAR-TAF: